sensor_id;sensor_type;location;lat;lon;timestamp;P1;durP1;ratioP1;P2;durP2;ratioP2
61527;SDS011;47395;42.032;-8.634;2023-12-22T00:00:46;16.98;;;13.30;;
61527;SDS011;47395;42.032;-8.634;2023-12-22T00:04:55;11.95;;;10.48;;
61527;SDS011;47395;42.032;-8.634;2023-12-22T00:06:57;16.42;;;11.57;;
61527;SDS011;47395;42.032;-8.634;2023-12-22T00:09:04;16.15;;;13.13;;
61527;SDS011;47395;42.032;-8.634;2023-12-22T00:11:08;19.35;;;13.88;;
61527;SDS011;47395;42.032;-8.634;2023-12-22T00:13:12;21.00;;;17.00;;
61527;SDS011;47395;42.032;-8.634;2023-12-22T00:17:20;21.13;;;17.33;;
61527;SDS011;47395;42.032;-8.634;2023-12-22T00:19:23;26.48;;;16.83;;
61527;SDS011;47395;42.032;-8.634;2023-12-22T00:21:28;24.98;;;17.23;;
61527;SDS011;47395;42.032;-8.634;2023-12-22T00:23:32;22.88;;;16.70;;
61527;SDS011;47395;42.032;-8.634;2023-12-22T00:28:33;18.70;;;15.27;;
61527;SDS011;47395;42.032;-8.634;2023-12-22T00:30:58;19.70;;;14.50;;
61527;SDS011;47395;42.032;-8.634;2023-12-22T00:35:36;18.33;;;13.13;;
61527;SDS011;47395;42.032;-8.634;2023-12-22T00:38:12;24.55;;;13.80;;
61527;SDS011;47395;42.032;-8.634;2023-12-22T00:40:34;19.25;;;14.40;;
61527;SDS011;47395;42.032;-8.634;2023-12-22T00:43:04;20.05;;;13.50;;
61527;SDS011;47395;42.032;-8.634;2023-12-22T00:45:14;15.25;;;12.50;;
61527;SDS011;47395;42.032;-8.634;2023-12-22T00:50:02;13.70;;;11.95;;
61527;SDS011;47395;42.032;-8.634;2023-12-22T00:52:12;13.95;;;12.45;;
61527;SDS011;47395;42.032;-8.634;2023-12-22T00:54:22;17.88;;;12.65;;
61527;SDS011;47395;42.032;-8.634;2023-12-22T00:59:19;16.90;;;12.75;;
61527;SDS011;47395;42.032;-8.634;2023-12-22T01:03:38;18.37;;;12.70;;
61527;SDS011;47395;42.032;-8.634;2023-12-22T01:06:04;13.93;;;11.38;;
61527;SDS011;47395;42.032;-8.634;2023-12-22T01:15:55;20.30;;;10.38;;
61527;SDS011;47395;42.032;-8.634;2023-12-22T01:18:19;15.18;;;10.07;;
61527;SDS011;47395;42.032;-8.634;2023-12-22T01:20:44;13.07;;;10.02;;
61527;SDS011;47395;42.032;-8.634;2023-12-22T01:26:00;11.65;;;10.02;;
61527;SDS011;47395;42.032;-8.634;2023-12-22T01:30:52;19.95;;;11.27;;
61527;SDS011;47395;42.032;-8.634;2023-12-22T01:33:27;16.13;;;10.27;;
61527;SDS011;47395;42.032;-8.634;2023-12-22T01:36:08;11.82;;;9.75;;
61527;SDS011;47395;42.032;-8.634;2023-12-22T01:41:01;16.75;;;11.05;;
61527;SDS011;47395;42.032;-8.634;2023-12-22T01:45:44;21.27;;;14.13;;
61527;SDS011;47395;42.032;-8.634;2023-12-22T01:47:53;21.55;;;15.13;;
61527;SDS011;47395;42.032;-8.634;2023-12-22T01:50:11;17.97;;;14.53;;
61527;SDS011;47395;42.032;-8.634;2023-12-22T01:52:33;17.00;;;12.30;;
61527;SDS011;47395;42.032;-8.634;2023-12-22T01:55:04;23.55;;;11.63;;
61527;SDS011;47395;42.032;-8.634;2023-12-22T01:57:39;21.85;;;12.77;;
61527;SDS011;47395;42.032;-8.634;2023-12-22T02:00:00;17.98;;;11.65;;
61527;SDS011;47395;42.032;-8.634;2023-12-22T02:02:26;21.52;;;12.20;;
61527;SDS011;47395;42.032;-8.634;2023-12-22T02:05:05;24.65;;;11.25;;
61527;SDS011;47395;42.032;-8.634;2023-12-22T02:08:06;23.38;;;14.63;;
61527;SDS011;47395;42.032;-8.634;2023-12-22T02:10:49;21.77;;;14.85;;
61527;SDS011;47395;42.032;-8.634;2023-12-22T02:21:30;21.13;;;16.05;;
61527;SDS011;47395;42.032;-8.634;2023-12-22T02:23:37;22.42;;;16.85;;
61527;SDS011;47395;42.032;-8.634;2023-12-22T02:29:03;21.80;;;15.45;;
61527;SDS011;47395;42.032;-8.634;2023-12-22T02:41:20;24.13;;;13.68;;
61527;SDS011;47395;42.032;-8.634;2023-12-22T02:44:04;23.38;;;12.23;;
61527;SDS011;47395;42.032;-8.634;2023-12-22T02:46:14;21.02;;;12.18;;
61527;SDS011;47395;42.032;-8.634;2023-12-22T02:48:41;20.75;;;11.02;;
61527;SDS011;47395;42.032;-8.634;2023-12-22T02:51:27;24.23;;;10.30;;
61527;SDS011;47395;42.032;-8.634;2023-12-22T02:53:34;16.75;;;10.00;;
61527;SDS011;47395;42.032;-8.634;2023-12-22T02:55:47;21.13;;;10.70;;
61527;SDS011;47395;42.032;-8.634;2023-12-22T02:58:03;18.13;;;11.75;;
61527;SDS011;47395;42.032;-8.634;2023-12-22T03:00:18;27.77;;;11.80;;
61527;SDS011;47395;42.032;-8.634;2023-12-22T03:02:49;23.55;;;11.63;;
61527;SDS011;47395;42.032;-8.634;2023-12-22T03:07:22;20.75;;;12.32;;
61527;SDS011;47395;42.032;-8.634;2023-12-22T03:12:20;23.45;;;12.60;;
61527;SDS011;47395;42.032;-8.634;2023-12-22T03:17:24;30.35;;;14.45;;
61527;SDS011;47395;42.032;-8.634;2023-12-22T03:19:47;19.70;;;11.52;;
61527;SDS011;47395;42.032;-8.634;2023-12-22T03:22:11;31.65;;;13.75;;
61527;SDS011;47395;42.032;-8.634;2023-12-22T03:24:26;29.67;;;13.48;;
61527;SDS011;47395;42.032;-8.634;2023-12-22T03:26:39;28.05;;;13.95;;
61527;SDS011;47395;42.032;-8.634;2023-12-22T03:29:24;34.78;;;16.20;;
61527;SDS011;47395;42.032;-8.634;2023-12-22T03:31:37;34.17;;;15.35;;
61527;SDS011;47395;42.032;-8.634;2023-12-22T03:33:57;28.80;;;16.23;;
61527;SDS011;47395;42.032;-8.634;2023-12-22T03:39:15;36.75;;;14.73;;
61527;SDS011;47395;42.032;-8.634;2023-12-22T03:41:39;30.75;;;15.85;;
61527;SDS011;47395;42.032;-8.634;2023-12-22T03:43:55;34.83;;;15.13;;
61527;SDS011;47395;42.032;-8.634;2023-12-22T03:46:15;24.58;;;13.82;;
61527;SDS011;47395;42.032;-8.634;2023-12-22T03:48:47;25.80;;;13.60;;
61527;SDS011;47395;42.032;-8.634;2023-12-22T03:51:30;26.50;;;13.38;;
61527;SDS011;47395;42.032;-8.634;2023-12-22T03:53:34;18.83;;;13.13;;
61527;SDS011;47395;42.032;-8.634;2023-12-22T03:55:43;23.02;;;12.65;;
61527;SDS011;47395;42.032;-8.634;2023-12-22T03:57:44;33.42;;;15.07;;
61527;SDS011;47395;42.032;-8.634;2023-12-22T03:59:57;17.77;;;11.40;;
61527;SDS011;47395;42.032;-8.634;2023-12-22T04:02:07;25.23;;;12.20;;
61527;SDS011;47395;42.032;-8.634;2023-12-22T04:04:17;23.70;;;12.05;;
61527;SDS011;47395;42.032;-8.634;2023-12-22T04:06:27;23.40;;;12.82;;
61527;SDS011;47395;42.032;-8.634;2023-12-22T04:09:09;20.98;;;12.82;;
61527;SDS011;47395;42.032;-8.634;2023-12-22T04:11:27;26.40;;;13.38;;
61527;SDS011;47395;42.032;-8.634;2023-12-22T04:13:52;29.85;;;13.88;;
61527;SDS011;47395;42.032;-8.634;2023-12-22T04:16:04;25.95;;;14.35;;
61527;SDS011;47395;42.032;-8.634;2023-12-22T04:18:20;34.33;;;15.68;;
61527;SDS011;47395;42.032;-8.634;2023-12-22T04:20:58;26.37;;;14.40;;
61527;SDS011;47395;42.032;-8.634;2023-12-22T04:23:09;32.75;;;12.88;;
61527;SDS011;47395;42.032;-8.634;2023-12-22T04:25:17;26.02;;;13.75;;
61527;SDS011;47395;42.032;-8.634;2023-12-22T04:27:42;24.38;;;13.05;;
61527;SDS011;47395;42.032;-8.634;2023-12-22T04:30:27;26.88;;;13.15;;
61527;SDS011;47395;42.032;-8.634;2023-12-22T04:35:36;25.45;;;12.65;;
61527;SDS011;47395;42.032;-8.634;2023-12-22T04:38:12;21.63;;;12.50;;
61527;SDS011;47395;42.032;-8.634;2023-12-22T04:43:52;22.42;;;12.00;;
61527;SDS011;47395;42.032;-8.634;2023-12-22T04:46:12;30.33;;;12.80;;
61527;SDS011;47395;42.032;-8.634;2023-12-22T04:48:50;21.48;;;11.50;;
61527;SDS011;47395;42.032;-8.634;2023-12-22T04:51:11;21.20;;;11.60;;
61527;SDS011;47395;42.032;-8.634;2023-12-22T04:53:29;22.38;;;11.68;;
61527;SDS011;47395;42.032;-8.634;2023-12-22T04:55:41;23.95;;;10.88;;
61527;SDS011;47395;42.032;-8.634;2023-12-22T04:58:01;21.40;;;10.35;;
61527;SDS011;47395;42.032;-8.634;2023-12-22T05:00:22;26.10;;;10.68;;
61527;SDS011;47395;42.032;-8.634;2023-12-22T05:04:48;21.63;;;10.75;;
61527;SDS011;47395;42.032;-8.634;2023-12-22T05:07:15;23.30;;;10.32;;
61527;SDS011;47395;42.032;-8.634;2023-12-22T05:10:03;22.63;;;9.85;;
61527;SDS011;47395;42.032;-8.634;2023-12-22T05:15:43;24.98;;;11.25;;
61527;SDS011;47395;42.032;-8.634;2023-12-22T05:17:56;27.83;;;10.48;;
61527;SDS011;47395;42.032;-8.634;2023-12-22T05:22:10;21.02;;;9.60;;
61527;SDS011;47395;42.032;-8.634;2023-12-22T05:24:27;23.95;;;9.45;;
61527;SDS011;47395;42.032;-8.634;2023-12-22T05:26:34;31.98;;;11.60;;
61527;SDS011;47395;42.032;-8.634;2023-12-22T05:28:51;20.95;;;9.82;;
61527;SDS011;47395;42.032;-8.634;2023-12-22T05:30:58;21.33;;;8.40;;
61527;SDS011;47395;42.032;-8.634;2023-12-22T05:33:17;23.50;;;11.57;;
61527;SDS011;47395;42.032;-8.634;2023-12-22T05:35:27;21.08;;;10.90;;
61527;SDS011;47395;42.032;-8.634;2023-12-22T05:37:36;19.33;;;10.50;;
61527;SDS011;47395;42.032;-8.634;2023-12-22T05:39:40;22.50;;;10.90;;
61527;SDS011;47395;42.032;-8.634;2023-12-22T05:41:43;23.83;;;11.25;;
61527;SDS011;47395;42.032;-8.634;2023-12-22T05:43:48;19.13;;;12.30;;
61527;SDS011;47395;42.032;-8.634;2023-12-22T05:46:01;33.20;;;12.98;;
61527;SDS011;47395;42.032;-8.634;2023-12-22T05:48:14;20.65;;;13.73;;
61527;SDS011;47395;42.032;-8.634;2023-12-22T05:53:34;22.08;;;11.02;;
61527;SDS011;47395;42.032;-8.634;2023-12-22T05:55:49;20.90;;;11.52;;
61527;SDS011;47395;42.032;-8.634;2023-12-22T06:02:50;23.60;;;10.77;;
61527;SDS011;47395;42.032;-8.634;2023-12-22T06:05:00;22.17;;;11.32;;
61527;SDS011;47395;42.032;-8.634;2023-12-22T06:07:27;22.70;;;11.15;;
61527;SDS011;47395;42.032;-8.634;2023-12-22T06:12:21;23.00;;;9.82;;
61527;SDS011;47395;42.032;-8.634;2023-12-22T06:15:06;20.00;;;9.63;;
61527;SDS011;47395;42.032;-8.634;2023-12-22T06:17:13;30.45;;;10.80;;
61527;SDS011;47395;42.032;-8.634;2023-12-22T06:19:36;27.77;;;10.30;;
61527;SDS011;47395;42.032;-8.634;2023-12-22T06:24:09;27.02;;;9.55;;
61527;SDS011;47395;42.032;-8.634;2023-12-22T06:26:13;21.45;;;9.65;;
61527;SDS011;47395;42.032;-8.634;2023-12-22T06:30:34;25.02;;;9.98;;
61527;SDS011;47395;42.032;-8.634;2023-12-22T06:32:54;20.58;;;10.05;;
61527;SDS011;47395;42.032;-8.634;2023-12-22T06:35:07;23.85;;;11.32;;
61527;SDS011;47395;42.032;-8.634;2023-12-22T06:39:29;21.52;;;10.93;;
61527;SDS011;47395;42.032;-8.634;2023-12-22T06:41:35;27.67;;;12.52;;
61527;SDS011;47395;42.032;-8.634;2023-12-22T06:43:49;30.23;;;11.85;;
61527;SDS011;47395;42.032;-8.634;2023-12-22T06:45:56;27.17;;;13.02;;
61527;SDS011;47395;42.032;-8.634;2023-12-22T06:48:05;21.75;;;12.38;;
61527;SDS011;47395;42.032;-8.634;2023-12-22T06:50:21;27.30;;;12.98;;
61527;SDS011;47395;42.032;-8.634;2023-12-22T06:52:31;25.85;;;12.43;;
61527;SDS011;47395;42.032;-8.634;2023-12-22T06:54:35;29.02;;;11.95;;
61527;SDS011;47395;42.032;-8.634;2023-12-22T06:57:08;31.60;;;12.52;;
61527;SDS011;47395;42.032;-8.634;2023-12-22T07:01:43;27.98;;;12.80;;
61527;SDS011;47395;42.032;-8.634;2023-12-22T07:03:50;26.63;;;11.48;;
61527;SDS011;47395;42.032;-8.634;2023-12-22T07:06:12;31.90;;;11.70;;
61527;SDS011;47395;42.032;-8.634;2023-12-22T07:08:33;27.67;;;10.20;;
61527;SDS011;47395;42.032;-8.634;2023-12-22T07:11:07;18.55;;;10.18;;
61527;SDS011;47395;42.032;-8.634;2023-12-22T07:13:42;20.60;;;9.68;;
61527;SDS011;47395;42.032;-8.634;2023-12-22T07:15:56;28.92;;;10.65;;
61527;SDS011;47395;42.032;-8.634;2023-12-22T07:18:07;23.25;;;10.90;;
61527;SDS011;47395;42.032;-8.634;2023-12-22T07:20:17;22.45;;;10.05;;
61527;SDS011;47395;42.032;-8.634;2023-12-22T07:22:50;22.27;;;9.38;;
61527;SDS011;47395;42.032;-8.634;2023-12-22T07:25:14;20.45;;;9.60;;
61527;SDS011;47395;42.032;-8.634;2023-12-22T07:27:31;18.58;;;9.57;;
61527;SDS011;47395;42.032;-8.634;2023-12-22T07:29:41;18.70;;;10.05;;
61527;SDS011;47395;42.032;-8.634;2023-12-22T07:34:15;21.52;;;10.25;;
61527;SDS011;47395;42.032;-8.634;2023-12-22T07:36:21;18.98;;;9.70;;
61527;SDS011;47395;42.032;-8.634;2023-12-22T07:38:22;23.90;;;9.05;;
61527;SDS011;47395;42.032;-8.634;2023-12-22T07:42:51;17.83;;;9.18;;
61527;SDS011;47395;42.032;-8.634;2023-12-22T07:47:20;19.65;;;9.13;;
61527;SDS011;47395;42.032;-8.634;2023-12-22T07:49:42;21.10;;;9.40;;
61527;SDS011;47395;42.032;-8.634;2023-12-22T07:51:53;28.15;;;10.27;;
61527;SDS011;47395;42.032;-8.634;2023-12-22T07:54:15;21.80;;;9.17;;
61527;SDS011;47395;42.032;-8.634;2023-12-22T07:56:25;27.50;;;10.27;;
61527;SDS011;47395;42.032;-8.634;2023-12-22T07:58:47;31.05;;;11.20;;
61527;SDS011;47395;42.032;-8.634;2023-12-22T08:00:56;24.15;;;10.30;;
61527;SDS011;47395;42.032;-8.634;2023-12-22T08:03:06;23.65;;;10.85;;
61527;SDS011;47395;42.032;-8.634;2023-12-22T08:05:13;25.17;;;10.27;;
61527;SDS011;47395;42.032;-8.634;2023-12-22T08:07:17;26.85;;;10.57;;
61527;SDS011;47395;42.032;-8.634;2023-12-22T08:12:16;25.67;;;9.95;;
61527;SDS011;47395;42.032;-8.634;2023-12-22T08:14:29;24.23;;;10.45;;
61527;SDS011;47395;42.032;-8.634;2023-12-22T08:16:34;33.38;;;11.40;;
61527;SDS011;47395;42.032;-8.634;2023-12-22T08:18:44;36.13;;;11.10;;
61527;SDS011;47395;42.032;-8.634;2023-12-22T08:23:12;27.50;;;11.00;;
61527;SDS011;47395;42.032;-8.634;2023-12-22T08:25:22;18.60;;;9.77;;
61527;SDS011;47395;42.032;-8.634;2023-12-22T08:27:34;19.90;;;10.68;;
61527;SDS011;47395;42.032;-8.634;2023-12-22T08:29:38;21.58;;;10.52;;
61527;SDS011;47395;42.032;-8.634;2023-12-22T08:31:57;36.08;;;11.80;;
61527;SDS011;47395;42.032;-8.634;2023-12-22T08:33:58;17.75;;;11.10;;
61527;SDS011;47395;42.032;-8.634;2023-12-22T08:36:06;20.42;;;10.50;;
61527;SDS011;47395;42.032;-8.634;2023-12-22T08:38:16;33.13;;;12.00;;
61527;SDS011;47395;42.032;-8.634;2023-12-22T08:40:27;17.30;;;10.63;;
61527;SDS011;47395;42.032;-8.634;2023-12-22T08:42:36;20.73;;;11.10;;
61527;SDS011;47395;42.032;-8.634;2023-12-22T08:44:49;21.50;;;10.65;;
61527;SDS011;47395;42.032;-8.634;2023-12-22T08:46:57;22.45;;;11.70;;
61527;SDS011;47395;42.032;-8.634;2023-12-22T08:49:01;27.40;;;13.32;;
61527;SDS011;47395;42.032;-8.634;2023-12-22T08:51:12;24.10;;;11.85;;
61527;SDS011;47395;42.032;-8.634;2023-12-22T08:53:19;26.05;;;12.63;;
61527;SDS011;47395;42.032;-8.634;2023-12-22T08:55:34;41.33;;;12.73;;
61527;SDS011;47395;42.032;-8.634;2023-12-22T08:57:39;21.75;;;12.30;;
61527;SDS011;47395;42.032;-8.634;2023-12-22T08:59:46;30.85;;;13.15;;
61527;SDS011;47395;42.032;-8.634;2023-12-22T09:02:01;30.20;;;12.43;;
61527;SDS011;47395;42.032;-8.634;2023-12-22T09:04:39;31.10;;;12.88;;
61527;SDS011;47395;42.032;-8.634;2023-12-22T09:06:46;30.55;;;12.93;;
61527;SDS011;47395;42.032;-8.634;2023-12-22T09:08:54;37.38;;;13.18;;
61527;SDS011;47395;42.032;-8.634;2023-12-22T09:11:01;28.02;;;12.85;;
61527;SDS011;47395;42.032;-8.634;2023-12-22T09:13:16;24.40;;;13.35;;
61527;SDS011;47395;42.032;-8.634;2023-12-22T09:15:21;26.67;;;13.57;;
61527;SDS011;47395;42.032;-8.634;2023-12-22T09:17:32;33.35;;;13.02;;
61527;SDS011;47395;42.032;-8.634;2023-12-22T09:19:50;31.95;;;14.27;;
61527;SDS011;47395;42.032;-8.634;2023-12-22T09:22:10;41.25;;;15.57;;
61527;SDS011;47395;42.032;-8.634;2023-12-22T09:24:28;37.45;;;15.13;;
61527;SDS011;47395;42.032;-8.634;2023-12-22T09:26:41;35.10;;;14.13;;
61527;SDS011;47395;42.032;-8.634;2023-12-22T09:29:11;19.47;;;12.23;;
61527;SDS011;47395;42.032;-8.634;2023-12-22T09:31:38;30.77;;;12.48;;
61527;SDS011;47395;42.032;-8.634;2023-12-22T09:33:48;25.02;;;11.90;;
61527;SDS011;47395;42.032;-8.634;2023-12-22T09:35:57;23.23;;;10.65;;
61527;SDS011;47395;42.032;-8.634;2023-12-22T09:41:06;21.50;;;9.98;;
61527;SDS011;47395;42.032;-8.634;2023-12-22T09:43:44;18.70;;;10.80;;
61527;SDS011;47395;42.032;-8.634;2023-12-22T09:46:05;31.30;;;11.73;;
61527;SDS011;47395;42.032;-8.634;2023-12-22T09:51:14;33.53;;;11.20;;
61527;SDS011;47395;42.032;-8.634;2023-12-22T09:53:38;26.35;;;9.77;;
61527;SDS011;47395;42.032;-8.634;2023-12-22T09:56:02;20.45;;;9.60;;
61527;SDS011;47395;42.032;-8.634;2023-12-22T09:58:31;27.73;;;11.20;;
61527;SDS011;47395;42.032;-8.634;2023-12-22T10:04:02;26.98;;;10.98;;
61527;SDS011;47395;42.032;-8.634;2023-12-22T10:06:04;26.80;;;11.38;;
61527;SDS011;47395;42.032;-8.634;2023-12-22T10:08:06;25.02;;;10.73;;
61527;SDS011;47395;42.032;-8.634;2023-12-22T10:10:12;25.98;;;9.98;;
61527;SDS011;47395;42.032;-8.634;2023-12-22T10:12:13;22.27;;;10.73;;
61527;SDS011;47395;42.032;-8.634;2023-12-22T10:14:20;19.25;;;10.45;;
61527;SDS011;47395;42.032;-8.634;2023-12-22T10:16:22;25.75;;;9.90;;
61527;SDS011;47395;42.032;-8.634;2023-12-22T10:18:24;21.58;;;9.45;;
61527;SDS011;47395;42.032;-8.634;2023-12-22T10:20:25;20.13;;;8.77;;
61527;SDS011;47395;42.032;-8.634;2023-12-22T10:22:26;22.42;;;9.75;;
61527;SDS011;47395;42.032;-8.634;2023-12-22T10:24:39;22.27;;;9.02;;
61527;SDS011;47395;42.032;-8.634;2023-12-22T10:28:48;17.55;;;6.95;;
61527;SDS011;47395;42.032;-8.634;2023-12-22T10:30:49;18.73;;;7.90;;
61527;SDS011;47395;42.032;-8.634;2023-12-22T10:32:51;22.27;;;7.40;;
61527;SDS011;47395;42.032;-8.634;2023-12-22T10:34:54;18.27;;;7.93;;
61527;SDS011;47395;42.032;-8.634;2023-12-22T10:36:58;17.70;;;7.95;;
61527;SDS011;47395;42.032;-8.634;2023-12-22T10:39:00;21.92;;;7.20;;
61527;SDS011;47395;42.032;-8.634;2023-12-22T10:41:01;15.98;;;7.10;;
61527;SDS011;47395;42.032;-8.634;2023-12-22T10:43:08;19.38;;;6.43;;
61527;SDS011;47395;42.032;-8.634;2023-12-22T10:45:11;24.90;;;6.75;;
61527;SDS011;47395;42.032;-8.634;2023-12-22T10:47:12;19.90;;;7.45;;
61527;SDS011;47395;42.032;-8.634;2023-12-22T10:49:13;18.45;;;7.43;;
61527;SDS011;47395;42.032;-8.634;2023-12-22T10:51:16;22.00;;;7.65;;
61527;SDS011;47395;42.032;-8.634;2023-12-22T10:53:18;14.48;;;6.70;;
61527;SDS011;47395;42.032;-8.634;2023-12-22T10:55:22;17.02;;;7.75;;
61527;SDS011;47395;42.032;-8.634;2023-12-22T10:57:26;20.17;;;7.20;;
61527;SDS011;47395;42.032;-8.634;2023-12-22T10:59:30;16.08;;;6.80;;
61527;SDS011;47395;42.032;-8.634;2023-12-22T11:01:36;18.55;;;6.90;;
61527;SDS011;47395;42.032;-8.634;2023-12-22T11:03:41;19.45;;;7.38;;
61527;SDS011;47395;42.032;-8.634;2023-12-22T11:05:46;18.15;;;5.78;;
61527;SDS011;47395;42.032;-8.634;2023-12-22T11:07:51;15.75;;;6.47;;
61527;SDS011;47395;42.032;-8.634;2023-12-22T11:10:02;15.30;;;6.40;;
61527;SDS011;47395;42.032;-8.634;2023-12-22T11:12:05;17.30;;;6.47;;
61527;SDS011;47395;42.032;-8.634;2023-12-22T11:14:07;18.23;;;6.60;;
61527;SDS011;47395;42.032;-8.634;2023-12-22T11:16:11;16.60;;;6.00;;
61527;SDS011;47395;42.032;-8.634;2023-12-22T11:18:14;21.40;;;5.93;;
61527;SDS011;47395;42.032;-8.634;2023-12-22T11:20:16;20.92;;;6.43;;
61527;SDS011;47395;42.032;-8.634;2023-12-22T11:22:19;16.60;;;5.97;;
61527;SDS011;47395;42.032;-8.634;2023-12-22T11:24:21;18.95;;;6.18;;
61527;SDS011;47395;42.032;-8.634;2023-12-22T11:26:25;16.80;;;6.32;;
61527;SDS011;47395;42.032;-8.634;2023-12-22T11:28:26;11.98;;;5.63;;
61527;SDS011;47395;42.032;-8.634;2023-12-22T11:30:29;19.85;;;6.25;;
61527;SDS011;47395;42.032;-8.634;2023-12-22T11:32:31;18.58;;;6.20;;
61527;SDS011;47395;42.032;-8.634;2023-12-22T11:34:40;15.25;;;6.20;;
61527;SDS011;47395;42.032;-8.634;2023-12-22T11:36:46;16.50;;;6.97;;
61527;SDS011;47395;42.032;-8.634;2023-12-22T11:38:49;14.82;;;6.32;;
61527;SDS011;47395;42.032;-8.634;2023-12-22T11:40:50;21.90;;;7.68;;
61527;SDS011;47395;42.032;-8.634;2023-12-22T11:42:53;18.58;;;7.10;;
61527;SDS011;47395;42.032;-8.634;2023-12-22T11:44:55;21.23;;;8.38;;
61527;SDS011;47395;42.032;-8.634;2023-12-22T11:47:06;19.85;;;6.10;;
61527;SDS011;47395;42.032;-8.634;2023-12-22T11:49:09;15.90;;;4.97;;
61527;SDS011;47395;42.032;-8.634;2023-12-22T11:51:15;16.45;;;5.45;;
61527;SDS011;47395;42.032;-8.634;2023-12-22T11:53:23;14.05;;;5.97;;
61527;SDS011;47395;42.032;-8.634;2023-12-22T11:57:58;14.65;;;4.82;;
61527;SDS011;47395;42.032;-8.634;2023-12-22T12:02:44;12.75;;;5.28;;
61527;SDS011;47395;42.032;-8.634;2023-12-22T12:04:56;14.80;;;5.00;;
61527;SDS011;47395;42.032;-8.634;2023-12-22T12:07:11;18.35;;;5.50;;
61527;SDS011;47395;42.032;-8.634;2023-12-22T12:09:45;16.23;;;4.47;;
61527;SDS011;47395;42.032;-8.634;2023-12-22T12:14:16;16.02;;;4.90;;
61527;SDS011;47395;42.032;-8.634;2023-12-22T12:16:26;18.13;;;4.93;;
61527;SDS011;47395;42.032;-8.634;2023-12-22T12:18:29;14.38;;;4.60;;
61527;SDS011;47395;42.032;-8.634;2023-12-22T12:20:33;16.98;;;4.88;;
61527;SDS011;47395;42.032;-8.634;2023-12-22T12:22:34;13.57;;;4.90;;
61527;SDS011;47395;42.032;-8.634;2023-12-22T12:24:39;12.07;;;4.72;;
61527;SDS011;47395;42.032;-8.634;2023-12-22T12:26:41;9.65;;;4.38;;
61527;SDS011;47395;42.032;-8.634;2023-12-22T12:28:44;17.38;;;4.82;;
61527;SDS011;47395;42.032;-8.634;2023-12-22T12:30:47;15.30;;;4.80;;
61527;SDS011;47395;42.032;-8.634;2023-12-22T12:32:48;12.90;;;4.85;;
61527;SDS011;47395;42.032;-8.634;2023-12-22T12:34:49;12.35;;;5.10;;
61527;SDS011;47395;42.032;-8.634;2023-12-22T12:36:51;16.05;;;5.00;;
61527;SDS011;47395;42.032;-8.634;2023-12-22T12:38:55;12.90;;;4.63;;
61527;SDS011;47395;42.032;-8.634;2023-12-22T12:40:59;15.27;;;4.68;;
61527;SDS011;47395;42.032;-8.634;2023-12-22T12:43:01;12.32;;;3.85;;
61527;SDS011;47395;42.032;-8.634;2023-12-22T12:45:06;14.88;;;5.03;;
61527;SDS011;47395;42.032;-8.634;2023-12-22T12:47:11;14.85;;;5.30;;
61527;SDS011;47395;42.032;-8.634;2023-12-22T12:49:13;14.13;;;4.88;;
61527;SDS011;47395;42.032;-8.634;2023-12-22T12:51:22;11.18;;;4.70;;
61527;SDS011;47395;42.032;-8.634;2023-12-22T12:53:23;15.57;;;4.60;;
61527;SDS011;47395;42.032;-8.634;2023-12-22T12:55:25;12.38;;;5.05;;
61527;SDS011;47395;42.032;-8.634;2023-12-22T12:57:28;12.85;;;4.57;;
61527;SDS011;47395;42.032;-8.634;2023-12-22T12:59:29;11.55;;;4.25;;
61527;SDS011;47395;42.032;-8.634;2023-12-22T13:01:30;12.77;;;4.40;;
61527;SDS011;47395;42.032;-8.634;2023-12-22T13:03:31;17.02;;;4.90;;
61527;SDS011;47395;42.032;-8.634;2023-12-22T13:05:33;17.02;;;4.93;;
61527;SDS011;47395;42.032;-8.634;2023-12-22T13:07:34;16.88;;;4.72;;
61527;SDS011;47395;42.032;-8.634;2023-12-22T13:09:38;13.63;;;4.20;;
61527;SDS011;47395;42.032;-8.634;2023-12-22T13:11:39;16.00;;;4.85;;
61527;SDS011;47395;42.032;-8.634;2023-12-22T13:13:47;20.58;;;5.13;;
61527;SDS011;47395;42.032;-8.634;2023-12-22T13:15:52;19.60;;;4.85;;
61527;SDS011;47395;42.032;-8.634;2023-12-22T13:17:53;15.73;;;4.68;;
61527;SDS011;47395;42.032;-8.634;2023-12-22T13:19:55;12.80;;;4.28;;
61527;SDS011;47395;42.032;-8.634;2023-12-22T13:21:56;13.50;;;4.55;;
61527;SDS011;47395;42.032;-8.634;2023-12-22T13:24:09;13.63;;;5.45;;
61527;SDS011;47395;42.032;-8.634;2023-12-22T13:26:19;18.50;;;5.03;;
61527;SDS011;47395;42.032;-8.634;2023-12-22T13:28:26;20.80;;;5.53;;
61527;SDS011;47395;42.032;-8.634;2023-12-22T13:30:32;13.55;;;4.85;;
61527;SDS011;47395;42.032;-8.634;2023-12-22T13:32:36;17.55;;;5.00;;
61527;SDS011;47395;42.032;-8.634;2023-12-22T13:34:38;16.90;;;5.13;;
61527;SDS011;47395;42.032;-8.634;2023-12-22T13:36:39;14.02;;;4.75;;
61527;SDS011;47395;42.032;-8.634;2023-12-22T13:38:48;13.65;;;5.20;;
61527;SDS011;47395;42.032;-8.634;2023-12-22T13:40:49;18.80;;;5.65;;
61527;SDS011;47395;42.032;-8.634;2023-12-22T13:42:57;17.05;;;5.63;;
61527;SDS011;47395;42.032;-8.634;2023-12-22T13:44:58;17.83;;;5.60;;
61527;SDS011;47395;42.032;-8.634;2023-12-22T13:47:02;15.02;;;5.32;;
61527;SDS011;47395;42.032;-8.634;2023-12-22T13:49:05;16.15;;;5.00;;
61527;SDS011;47395;42.032;-8.634;2023-12-22T13:51:12;19.13;;;5.35;;
61527;SDS011;47395;42.032;-8.634;2023-12-22T13:53:14;11.40;;;4.72;;
61527;SDS011;47395;42.032;-8.634;2023-12-22T13:55:16;15.98;;;4.57;;
61527;SDS011;47395;42.032;-8.634;2023-12-22T13:57:19;16.20;;;5.30;;
61527;SDS011;47395;42.032;-8.634;2023-12-22T13:59:34;16.85;;;5.68;;
61527;SDS011;47395;42.032;-8.634;2023-12-22T14:01:35;20.05;;;6.07;;
61527;SDS011;47395;42.032;-8.634;2023-12-22T14:03:37;21.50;;;6.13;;
61527;SDS011;47395;42.032;-8.634;2023-12-22T14:05:38;24.83;;;6.22;;
61527;SDS011;47395;42.032;-8.634;2023-12-22T14:07:39;18.50;;;6.13;;
61527;SDS011;47395;42.032;-8.634;2023-12-22T14:09:41;15.93;;;5.85;;
61527;SDS011;47395;42.032;-8.634;2023-12-22T14:11:42;14.65;;;5.65;;
61527;SDS011;47395;42.032;-8.634;2023-12-22T14:13:43;22.25;;;6.45;;
61527;SDS011;47395;42.032;-8.634;2023-12-22T14:15:45;20.13;;;6.13;;
61527;SDS011;47395;42.032;-8.634;2023-12-22T14:17:47;24.48;;;5.78;;
61527;SDS011;47395;42.032;-8.634;2023-12-22T14:19:48;20.30;;;5.80;;
61527;SDS011;47395;42.032;-8.634;2023-12-22T14:21:53;16.95;;;5.38;;
61527;SDS011;47395;42.032;-8.634;2023-12-22T14:23:54;18.75;;;5.65;;
61527;SDS011;47395;42.032;-8.634;2023-12-22T14:25:55;19.98;;;6.22;;
61527;SDS011;47395;42.032;-8.634;2023-12-22T14:27:57;26.88;;;6.57;;
61527;SDS011;47395;42.032;-8.634;2023-12-22T14:29:59;25.02;;;7.13;;
61527;SDS011;47395;42.032;-8.634;2023-12-22T14:32:00;16.85;;;5.97;;
61527;SDS011;47395;42.032;-8.634;2023-12-22T14:34:01;16.27;;;5.38;;
61527;SDS011;47395;42.032;-8.634;2023-12-22T14:36:02;24.17;;;6.57;;
61527;SDS011;47395;42.032;-8.634;2023-12-22T14:38:05;20.15;;;5.70;;
61527;SDS011;47395;42.032;-8.634;2023-12-22T14:40:08;14.15;;;5.97;;
61527;SDS011;47395;42.032;-8.634;2023-12-22T14:42:10;19.73;;;8.43;;
61527;SDS011;47395;42.032;-8.634;2023-12-22T14:44:12;23.23;;;8.40;;
61527;SDS011;47395;42.032;-8.634;2023-12-22T14:46:13;14.35;;;5.93;;
61527;SDS011;47395;42.032;-8.634;2023-12-22T14:48:16;23.42;;;7.18;;
61527;SDS011;47395;42.032;-8.634;2023-12-22T14:50:17;22.35;;;9.63;;
61527;SDS011;47395;42.032;-8.634;2023-12-22T14:52:18;19.70;;;8.88;;
61527;SDS011;47395;42.032;-8.634;2023-12-22T14:54:20;21.30;;;8.60;;